Time;durP1;ratioP1;P1;durP2;ratioP2;P2;SDS_P1;SDS_P2;PMS_P1;PMS_P2;Temp;Humidity;BMP_temperature;BMP_pressure;BME280_temperature;BME280_humidity;BME280_pressure;Samples;Min_cycle;Max_cycle;Signal;HPM_P1;HPM_P2
2023/01/16 00:00:43;;;;;;;6.73;1.23;;;3.00;99.90;;;;;;5014259;28;20206;-67
2023/01/16 00:03:08;;;;;;;2.03;1.33;;;3.00;99.90;;;;;;5010442;28;20193;-70
2023/01/16 00:05:34;;;;;;;5.47;2.83;;;2.90;99.90;;;;;;5011423;28;20544;-70
2023/01/16 00:07:59;;;;;;;3.20;2.20;;;2.90;99.90;;;;;;5011945;28;20179;-69
2023/01/16 00:10:25;;;;;;;4.87;1.17;;;2.90;99.90;;;;;;4995125;28;20559;-69
2023/01/16 00:12:50;;;;;;;1.83;1.03;;;3.00;99.90;;;;;;5012242;28;20186;-69
2023/01/16 00:15:16;;;;;;;5.53;2.03;;;3.10;99.90;;;;;;5014405;28;20689;-67
2023/01/16 00:17:41;;;;;;;1.47;0.93;;;3.00;99.90;;;;;;5011613;28;20217;-66
2023/01/16 00:20:08;;;;;;;2.57;1.00;;;3.00;99.90;;;;;;5020190;28;20584;-68
2023/01/16 00:22:33;;;;;;;2.90;1.00;;;3.10;99.90;;;;;;5012452;28;20224;-66
2023/01/16 00:24:59;;;;;;;1.63;1.00;;;3.10;99.90;;;;;;5010813;28;20441;-68
2023/01/16 00:27:24;;;;;;;1.80;0.80;;;3.10;99.90;;;;;;5010287;28;20255;-68
2023/01/16 00:29:50;;;;;;;1.23;0.87;;;3.00;99.90;;;;;;5013870;28;20206;-67
2023/01/16 00:32:15;;;;;;;6.90;1.10;;;3.10;99.90;;;;;;5015877;28;20179;-67
2023/01/16 00:34:41;;;;;;;5.53;1.27;;;3.00;99.90;;;;;;5018924;28;20198;-67
2023/01/16 00:37:07;;;;;;;5.47;1.20;;;3.00;99.90;;;;;;5012076;28;20276;-67
2023/01/16 00:39:32;;;;;;;6.67;1.23;;;2.90;99.90;;;;;;5008784;28;20194;-67
2023/01/16 00:41:58;;;;;;;3.33;0.70;;;2.90;99.90;;;;;;5012195;28;20185;-66
2023/01/16 00:44:24;;;;;;;1.27;0.90;;;2.90;99.90;;;;;;5016273;28;20183;-66
2023/01/16 00:46:50;;;;;;;2.33;1.00;;;2.90;99.90;;;;;;5011808;28;21005;-65
2023/01/16 00:49:15;;;;;;;4.13;0.90;;;2.90;99.90;;;;;;5025574;28;20567;-65
2023/01/16 00:51:41;;;;;;;1.37;0.93;;;2.90;99.90;;;;;;5012178;28;20167;-65
2023/01/16 00:54:06;;;;;;;4.17;1.50;;;2.90;99.90;;;;;;5016970;28;20175;-65
2023/01/16 00:56:32;;;;;;;7.03;1.30;;;2.90;99.90;;;;;;5012070;28;20746;-65
2023/01/16 00:58:57;;;;;;;1.90;0.83;;;2.90;99.90;;;;;;5019017;28;20190;-65
2023/01/16 01:01:23;;;;;;;1.93;0.90;;;3.00;99.90;;;;;;5011530;28;20187;-66
2023/01/16 01:03:48;;;;;;;1.47;0.90;;;3.00;99.90;;;;;;5015921;28;20166;-65
2023/01/16 01:06:14;;;;;;;1.43;0.70;;;3.00;99.90;;;;;;5011667;28;20226;-65
2023/01/16 01:08:40;;;;;;;2.10;1.33;;;2.90;99.90;;;;;;5010492;28;20170;-65
2023/01/16 01:11:15;;;;;;;2.57;0.70;;;2.90;99.90;;;;;;5013229;28;20214;-66
2023/01/16 01:13:41;;;;;;;2.70;0.90;;;2.90;99.90;;;;;;5020372;28;20230;-65
2023/01/16 01:16:07;;;;;;;2.20;0.80;;;2.90;99.90;;;;;;5010222;28;20472;-66
2023/01/16 01:18:33;;;;;;;1.93;1.03;;;2.90;99.90;;;;;;5015323;28;20438;-65
2023/01/16 01:20:58;;;;;;;3.13;0.73;;;2.90;99.90;;;;;;5009861;28;20468;-66
2023/01/16 01:23:24;;;;;;;1.47;0.90;;;2.90;99.90;;;;;;5018576;28;20197;-66
2023/01/16 01:25:50;;;;;;;4.93;0.93;;;2.90;99.90;;;;;;5010560;28;20238;-65
2023/01/16 01:28:15;;;;;;;1.37;1.27;;;2.90;99.90;;;;;;5015645;28;20187;-65
2023/01/16 01:30:41;;;;;;;1.77;0.60;;;2.90;99.90;;;;;;5010873;28;20210;-66
2023/01/16 01:33:08;;;;;;;3.07;1.00;;;2.90;99.90;;;;;;5008473;28;20253;-66
2023/01/16 01:35:34;;;;;;;2.73;1.03;;;2.90;99.90;;;;;;5016416;28;20186;-66
2023/01/16 01:37:59;;;;;;;1.27;0.77;;;2.90;99.90;;;;;;5012823;28;20440;-66
2023/01/16 01:40:25;;;;;;;4.37;0.80;;;2.90;99.90;;;;;;5014310;28;20175;-66
2023/01/16 01:42:53;;;;;;;2.93;1.10;;;2.90;99.90;;;;;;5011690;28;20190;-66
2023/01/16 01:45:27;;;;;;;0.70;0.53;;;2.90;99.90;;;;;;5009020;28;20199;-66
2023/01/16 01:48:11;;;;;;;1.33;0.80;;;2.90;99.90;;;;;;5009871;28;20446;-65
2023/01/16 01:50:55;;;;;;;2.50;0.93;;;2.90;99.90;;;;;;5008397;28;20454;-66
2023/01/16 01:53:34;;;;;;;1.10;0.70;;;2.80;99.90;;;;;;5010298;28;20513;-66
2023/01/16 01:56:23;;;;;;;4.43;0.70;;;2.80;99.90;;;;;;5016214;28;20545;-66
2023/01/16 01:58:53;;;;;;;3.27;0.60;;;2.70;99.90;;;;;;5012169;28;20483;-66
2023/01/16 02:01:18;;;;;;;1.87;0.93;;;2.70;99.90;;;;;;5009802;28;20480;-66
2023/01/16 02:03:57;;;;;;;5.43;1.03;;;2.70;99.90;;;;;;5006453;28;20466;-66
2023/01/16 02:06:30;;;;;;;2.60;0.90;;;2.70;99.90;;;;;;5002547;28;20202;-66
2023/01/16 02:08:56;;;;;;;1.47;0.83;;;2.70;99.90;;;;;;5010024;28;20473;-66
2023/01/16 02:11:35;;;;;;;1.00;0.70;;;2.80;99.90;;;;;;5013945;28;20461;-66
2023/01/16 02:14:15;;;;;;;2.30;0.90;;;2.80;99.90;;;;;;5016684;28;20206;-66
2023/01/16 02:19:52;;;;;;;1.10;0.83;;;2.70;99.90;;;;;;5010264;28;20438;-66
2023/01/16 02:22:45;;;;;;;3.67;0.80;;;2.70;99.90;;;;;;5020454;28;20484;-66
2023/01/16 02:25:22;;;;;;;1.90;0.87;;;2.60;99.90;;;;;;5010487;28;20441;-66
2023/01/16 02:28:02;;;;;;;1.90;0.90;;;2.60;99.90;;;;;;5019319;28;20444;-66
2023/01/16 02:30:52;;;;;;;1.70;1.00;;;2.60;99.90;;;;;;5009189;28;20536;-66
2023/01/16 02:33:42;;;;;;;1.17;0.70;;;2.60;99.90;;;;;;5017498;28;20430;-65
2023/01/16 02:36:31;;;;;;;1.43;0.90;;;2.60;99.90;;;;;;5016895;28;20457;-65
2023/01/16 02:39:30;;;;;;;3.77;0.90;;;2.60;99.90;;;;;;5009625;28;20774;-65
2023/01/16 02:42:15;;;;;;;2.63;1.07;;;2.70;99.90;;;;;;5017317;28;20439;-66
2023/01/16 02:45:01;;;;;;;0.73;0.70;;;2.70;99.90;;;;;;5015991;28;20800;-66
2023/01/16 02:47:42;;;;;;;2.80;0.67;;;2.60;99.90;;;;;;5009129;28;20815;-66
2023/01/16 02:50:13;;;;;;;1.60;0.70;;;2.60;99.90;;;;;;5020839;28;20460;-67
2023/01/16 02:52:45;;;;;;;1.63;0.70;;;2.60;99.90;;;;;;5019284;28;20433;-66
2023/01/16 02:55:40;;;;;;;0.70;0.63;;;2.60;99.90;;;;;;5023228;28;20877;-66
2023/01/16 02:58:08;;;;;;;7.47;1.97;;;2.50;99.90;;;;;;5023273;28;20655;-66
2023/01/16 03:00:35;;;;;;;6.20;1.23;;;2.50;99.90;;;;;;5019538;28;20450;-66
2023/01/16 03:03:01;;;;;;;3.70;0.80;;;2.50;99.90;;;;;;5022123;28;20440;-66
2023/01/16 03:05:38;;;;;;;1.63;0.70;;;2.50;99.90;;;;;;5013275;28;20453;-66
2023/01/16 03:08:22;;;;;;;4.00;1.27;;;2.50;99.90;;;;;;5010810;28;20213;-66
2023/01/16 03:11:11;;;;;;;0.93;0.50;;;2.40;99.90;;;;;;5009583;28;20580;-66
2023/01/16 03:13:49;;;;;;;1.90;0.80;;;2.40;99.90;;;;;;5009236;28;20434;-66
2023/01/16 03:16:42;;;;;;;2.67;0.97;;;2.40;99.90;;;;;;5002052;28;20538;-65
2023/01/16 03:19:16;;;;;;;1.40;0.70;;;2.40;99.90;;;;;;5018626;28;20441;-65
2023/01/16 03:22:14;;;;;;;2.37;0.97;;;2.40;99.90;;;;;;5014778;28;20433;-65
2023/01/16 03:24:55;;;;;;;5.03;1.50;;;2.40;99.90;;;;;;5008420;28;20472;-65
2023/01/16 03:27:58;;;;;;;1.13;0.70;;;2.40;99.90;;;;;;5012561;28;20469;-66
2023/01/16 03:30:26;;;;;;;3.90;1.80;;;2.40;99.90;;;;;;5008196;28;20461;-65
2023/01/16 03:33:01;;;;;;;3.73;0.80;;;2.40;99.90;;;;;;5013565;28;20473;-65
2023/01/16 03:35:46;;;;;;;1.23;0.77;;;2.40;99.90;;;;;;4993868;28;20457;-65
2023/01/16 03:38:14;;;;;;;5.77;1.00;;;2.40;99.90;;;;;;5012126;28;20516;-65
2023/01/16 03:40:45;;;;;;;1.20;0.80;;;2.40;99.90;;;;;;5012827;28;20444;-65
2023/01/16 03:43:33;;;;;;;1.20;1.10;;;2.30;99.90;;;;;;5012544;28;20451;-66
2023/01/16 03:46:04;;;;;;;2.67;1.03;;;2.30;99.90;;;;;;5010549;28;20465;-66
2023/01/16 03:49:08;;;;;;;1.67;0.80;;;2.30;99.90;;;;;;5019512;28;20446;-66
2023/01/16 03:51:40;;;;;;;2.13;1.00;;;2.30;99.90;;;;;;5019314;28;20477;-66
2023/01/16 03:54:24;;;;;;;1.67;0.73;;;2.30;99.90;;;;;;5020888;28;20531;-66
2023/01/16 03:56:56;;;;;;;2.37;0.93;;;2.30;99.90;;;;;;5014303;28;20473;-66
2023/01/16 03:59:22;;;;;;;1.07;0.67;;;2.30;99.90;;;;;;5010672;28;20471;-66
2023/01/16 04:02:02;;;;;;;2.87;0.97;;;2.30;99.90;;;;;;5023700;28;20456;-66
2023/01/16 04:04:52;;;;;;;0.87;0.80;;;2.40;99.90;;;;;;5012758;28;20428;-66
2023/01/16 04:07:37;;;;;;;4.13;0.80;;;2.40;99.90;;;;;;5019065;28;20450;-66
2023/01/16 04:10:06;;;;;;;2.20;0.80;;;2.40;99.90;;;;;;5020486;28;20454;-66
2023/01/16 04:12:46;;;;;;;3.37;1.30;;;2.50;99.90;;;;;;5024500;28;20437;-66
2023/01/16 04:15:11;;;;;;;3.37;1.03;;;2.50;99.90;;;;;;5021983;28;20892;-66
2023/01/16 04:17:39;;;;;;;3.13;1.00;;;2.50;99.90;;;;;;5011570;28;20446;-66
2023/01/16 04:20:06;;;;;;;1.57;0.73;;;2.50;99.90;;;;;;5009673;28;20636;-66
2023/01/16 04:22:32;;;;;;;1.53;0.60;;;2.50;99.90;;;;;;5011976;28;20440;-66
2023/01/16 04:25:00;;;;;;;2.30;0.70;;;2.50;99.90;;;;;;5011720;28;20438;-66
2023/01/16 04:27:25;;;;;;;2.70;0.80;;;2.50;99.90;;;;;;5011602;28;20186;-66
2023/01/16 04:29:51;;;;;;;2.20;0.77;;;2.40;99.90;;;;;;5019746;28;21006;-66
2023/01/16 04:32:17;;;;;;;2.73;0.90;;;2.40;99.90;;;;;;5014033;28;20449;-66
2023/01/16 04:34:42;;;;;;;1.33;0.87;;;2.30;99.90;;;;;;5020631;28;20175;-66
2023/01/16 04:37:12;;;;;;;2.30;0.67;;;2.30;99.90;;;;;;5011529;28;20750;-66
2023/01/16 04:39:38;;;;;;;1.90;0.90;;;2.30;99.90;;;;;;5016443;28;20190;-66
2023/01/16 04:42:03;;;;;;;3.83;0.80;;;2.20;99.90;;;;;;5010062;28;20810;-66
2023/01/16 04:44:29;;;;;;;3.07;0.80;;;2.30;99.90;;;;;;5011842;28;20187;-66
2023/01/16 04:46:54;;;;;;;1.53;0.70;;;2.20;99.90;;;;;;5009777;28;20214;-66
2023/01/16 04:49:20;;;;;;;1.43;0.70;;;2.20;99.90;;;;;;5022870;28;20261;-66
2023/01/16 04:51:45;;;;;;;2.10;1.57;;;2.20;99.90;;;;;;5016615;28;20248;-66
2023/01/16 04:54:15;;;;;;;1.10;1.00;;;2.20;99.90;;;;;;5019571;28;20191;-66
2023/01/16 04:56:41;;;;;;;1.47;0.83;;;2.20;99.90;;;;;;5017104;28;20672;-66
2023/01/16 04:59:07;;;;;;;2.63;1.17;;;2.20;99.90;;;;;;5020401;28;20441;-66
2023/01/16 05:01:34;;;;;;;1.10;1.00;;;2.20;99.90;;;;;;5013034;28;20452;-66
2023/01/16 05:04:01;;;;;;;1.57;1.37;;;2.30;99.90;;;;;;5020968;28;20801;-65
2023/01/16 05:06:27;;;;;;;1.10;0.80;;;2.30;99.90;;;;;;5017758;28;21024;-66
2023/01/16 05:08:52;;;;;;;0.90;0.70;;;2.40;99.90;;;;;;5021011;28;20429;-66
2023/01/16 05:11:18;;;;;;;5.03;1.10;;;2.40;99.90;;;;;;5014535;28;20197;-66
2023/01/16 05:13:43;;;;;;;1.60;0.70;;;2.40;99.90;;;;;;5015993;28;20171;-66
2023/01/16 05:16:09;;;;;;;2.83;0.80;;;2.40;99.90;;;;;;5039184;22;20612;-68
2023/01/16 05:18:34;;;;;;;1.10;0.80;;;2.50;99.90;;;;;;4992378;28;20538;-73
2023/01/16 05:21:01;;;;;;;2.30;0.83;;;2.50;99.90;;;;;;5019746;28;20186;-73
2023/01/16 05:23:27;;;;;;;2.57;1.10;;;2.50;99.90;;;;;;4991120;28;20183;-73
2023/01/16 05:25:53;;;;;;;2.17;1.20;;;2.60;99.90;;;;;;5022348;28;20571;-73
2023/01/16 05:28:19;;;;;;;2.60;1.30;;;2.50;99.90;;;;;;5016436;28;20279;-72
2023/01/16 05:30:47;;;;;;;2.20;1.10;;;2.50;99.90;;;;;;5016021;28;21296;-74
2023/01/16 05:33:13;;;;;;;1.20;1.10;;;2.50;99.90;;;;;;5022043;28;20178;-73
2023/01/16 05:35:38;;;;;;;2.70;0.90;;;2.60;99.90;;;;;;5015032;28;22528;-73
2023/01/16 05:38:04;;;;;;;3.53;2.10;;;2.60;99.90;;;;;;5014682;28;20183;-72
2023/01/16 05:40:30;;;;;;;2.10;1.03;;;2.70;99.90;;;;;;5021354;28;20177;-73
2023/01/16 05:42:55;;;;;;;1.57;0.70;;;2.70;99.90;;;;;;5007911;28;20198;-72
2023/01/16 05:45:21;;;;;;;3.03;1.00;;;2.70;99.90;;;;;;5013313;28;20891;-72
2023/01/16 05:47:46;;;;;;;1.60;0.90;;;2.70;99.90;;;;;;5012623;28;20206;-69
2023/01/16 05:50:12;;;;;;;2.67;1.00;;;2.80;99.90;;;;;;5016542;28;20689;-70
2023/01/16 05:52:37;;;;;;;1.67;0.70;;;2.80;99.90;;;;;;5010629;28;20199;-70
2023/01/16 05:55:03;;;;;;;2.40;0.90;;;2.90;99.90;;;;;;5017351;28;20187;-70
2023/01/16 05:57:29;;;;;;;0.93;0.80;;;2.80;99.90;;;;;;5014418;28;20190;-70
2023/01/16 05:59:55;;;;;;;1.70;1.23;;;2.90;99.90;;;;;;5010682;28;20465;-70
2023/01/16 06:02:21;;;;;;;2.70;0.90;;;2.90;99.90;;;;;;5010301;28;20469;-70
2023/01/16 06:04:47;;;;;;;1.47;0.90;;;3.00;99.90;;;;;;5004156;28;20939;-69
2023/01/16 06:07:13;;;;;;;0.70;0.70;;;3.00;99.90;;;;;;5008925;28;20461;-69
2023/01/16 06:09:39;;;;;;;4.17;0.90;;;3.00;99.90;;;;;;5007609;28;20194;-70
2023/01/16 06:12:07;;;;;;;2.70;0.93;;;3.00;99.90;;;;;;5009051;28;20852;-69
2023/01/16 06:14:33;;;;;;;1.50;1.07;;;3.00;99.90;;;;;;5004733;28;20437;-69
2023/01/16 06:16:58;;;;;;;0.83;0.80;;;3.00;99.90;;;;;;5010131;28;20469;-69
2023/01/16 06:19:24;;;;;;;0.83;0.73;;;2.90;99.90;;;;;;5022509;28;20445;-69
2023/01/16 06:21:49;;;;;;;1.33;1.13;;;2.90;99.90;;;;;;5017529;28;20187;-70
2023/01/16 06:24:15;;;;;;;1.03;0.83;;;2.90;99.90;;;;;;5023494;28;20244;-70
2023/01/16 06:26:40;;;;;;;1.80;0.80;;;2.90;99.90;;;;;;5019379;28;20202;-69
2023/01/16 06:29:06;;;;;;;2.00;1.23;;;2.90;99.90;;;;;;5009298;28;20194;-69
2023/01/16 06:31:31;;;;;;;3.60;0.93;;;2.80;99.90;;;;;;5001930;28;20191;-69
2023/01/16 06:33:57;;;;;;;2.40;1.20;;;2.80;99.90;;;;;;5004916;28;20186;-69
2023/01/16 06:36:23;;;;;;;2.20;1.00;;;2.80;99.90;;;;;;5012335;28;20199;-70
2023/01/16 06:38:48;;;;;;;3.07;1.80;;;2.70;99.90;;;;;;5007024;28;20235;-70
2023/01/16 06:41:14;;;;;;;3.60;1.10;;;2.70;99.90;;;;;;5013929;28;20203;-69
2023/01/16 06:43:40;;;;;;;4.23;1.40;;;2.60;99.90;;;;;;5010657;28;20273;-68
2023/01/16 06:46:05;;;;;;;1.93;1.03;;;2.50;99.90;;;;;;5015637;28;20210;-70
2023/01/16 06:48:31;;;;;;;5.93;1.50;;;2.50;99.90;;;;;;5007384;28;20219;-72
2023/01/16 06:50:59;;;;;;;1.10;0.97;;;2.50;99.90;;;;;;5012049;28;20211;-70
2023/01/16 06:53:24;;;;;;;1.60;1.40;;;2.40;99.90;;;;;;5014713;28;20175;-70
2023/01/16 06:55:50;;;;;;;1.17;1.07;;;2.40;99.90;;;;;;5012352;28;20477;-70
2023/01/16 06:58:15;;;;;;;1.93;1.07;;;2.40;99.90;;;;;;5010145;28;20222;-70
2023/01/16 07:00:41;;;;;;;1.87;1.27;;;2.40;99.90;;;;;;5010489;28;20179;-71
2023/01/16 07:03:06;;;;;;;2.10;1.33;;;2.40;99.90;;;;;;5015776;28;20194;-70
2023/01/16 07:05:32;;;;;;;3.90;1.47;;;2.40;99.90;;;;;;5002468;28;20219;-70
2023/01/16 07:07:58;;;;;;;3.07;1.20;;;2.40;99.90;;;;;;4991352;28;20604;-70
2023/01/16 07:10:24;;;;;;;4.33;1.70;;;2.50;99.90;;;;;;4988251;28;20191;-70
2023/01/16 07:12:52;;;;;;;3.20;1.57;;;2.50;99.90;;;;;;4987121;28;20245;-71
2023/01/16 07:23:39;;;;;;;3.80;1.70;;;2.50;99.90;;;;;;4989566;28;20464;-72
2023/01/16 07:26:07;;;;;;;4.87;2.20;;;2.50;99.90;;;;;;4988369;28;20569;-70
2023/01/16 07:28:34;;;;;;;1.50;1.40;;;2.40;99.90;;;;;;4993579;28;20952;-70
2023/01/16 07:31:03;;;;;;;4.80;1.80;;;2.50;99.90;;;;;;5007345;28;20947;-71
2023/01/16 07:33:29;;;;;;;2.20;1.10;;;2.50;99.90;;;;;;5006575;28;21155;-69
2023/01/16 07:35:55;;;;;;;3.00;1.50;;;2.50;99.90;;;;;;4970547;28;20465;-69
2023/01/16 07:38:20;;;;;;;3.43;1.57;;;2.50;99.90;;;;;;4982948;28;20777;-69
2023/01/16 07:40:46;;;;;;;2.97;1.77;;;2.50;99.90;;;;;;5011687;28;20193;-69
2023/01/16 07:43:11;;;;;;;5.20;1.67;;;2.60;99.90;;;;;;4988168;28;20176;-69
2023/01/16 07:45:37;;;;;;;2.93;1.40;;;2.60;99.90;;;;;;5005357;28;20628;-69
2023/01/16 07:48:03;;;;;;;1.70;1.50;;;2.60;99.90;;;;;;5005103;28;20305;-69
2023/01/16 07:50:28;;;;;;;1.90;1.80;;;2.60;99.90;;;;;;5007621;28;20206;-69
2023/01/16 07:52:54;;;;;;;4.27;2.10;;;2.60;99.90;;;;;;5006557;28;20203;-69
2023/01/16 07:55:20;;;;;;;2.83;1.87;;;2.60;99.90;;;;;;4997689;28;21275;-69
2023/01/16 07:57:45;;;;;;;2.20;2.00;;;2.70;99.90;;;;;;4995846;28;20205;-69
2023/01/16 08:00:12;;;;;;;2.07;1.97;;;2.80;99.90;;;;;;4998310;28;20187;-69
2023/01/16 08:02:38;;;;;;;10.03;2.30;;;2.90;99.90;;;;;;4997674;28;20206;-69
2023/01/16 08:05:04;;;;;;;1.83;1.63;;;2.80;99.90;;;;;;5003660;28;20438;-69
2023/01/16 08:07:30;;;;;;;4.20;1.73;;;2.80;99.90;;;;;;5006520;28;20844;-69
2023/01/16 08:09:55;;;;;;;2.40;1.60;;;2.80;99.90;;;;;;5011916;28;20465;-70
2023/01/16 08:12:21;;;;;;;2.23;1.60;;;2.90;99.90;;;;;;5007612;28;20557;-69
2023/01/16 08:14:46;;;;;;;3.90;1.83;;;3.00;99.90;;;;;;5009423;28;20273;-68
2023/01/16 08:17:12;;;;;;;3.27;1.90;;;3.00;99.90;;;;;;5006278;28;20272;-68
2023/01/16 08:19:38;;;;;;;2.33;1.60;;;3.00;99.90;;;;;;5004794;28;20179;-68
2023/01/16 08:22:03;;;;;;;3.17;1.70;;;3.00;99.90;;;;;;5015558;28;20229;-71
2023/01/16 08:24:29;;;;;;;2.03;1.50;;;3.00;99.90;;;;;;5014631;28;20203;-69
2023/01/16 08:26:55;;;;;;;3.00;1.87;;;3.10;99.90;;;;;;5007905;28;20211;-69
2023/01/16 08:29:21;;;;;;;3.00;1.83;;;3.20;99.90;;;;;;5007929;28;20199;-70
2023/01/16 08:31:47;;;;;;;1.67;1.57;;;3.20;99.90;;;;;;5008195;28;20974;-70
2023/01/16 08:34:12;;;;;;;3.87;1.23;;;3.30;99.90;;;;;;5009076;28;20441;-70
2023/01/16 08:36:38;;;;;;;2.50;1.10;;;3.30;99.90;;;;;;5010800;28;20226;-70
2023/01/16 08:39:04;;;;;;;1.63;1.53;;;3.30;99.90;;;;;;5006269;28;20186;-72
2023/01/16 08:52:36;;;;;;;1.20;0.70;;;3.50;99.90;;;;;;5009694;28;20432;-71
2023/01/16 08:55:02;;;;;;;1.50;1.10;;;3.50;99.90;;;;;;5005327;28;20440;-71
2023/01/16 08:57:28;;;;;;;1.80;1.10;;;3.60;99.90;;;;;;5013747;28;20950;-71
2023/01/16 08:59:55;;;;;;;4.97;3.60;;;3.60;99.90;;;;;;5009183;28;20202;-70
2023/01/16 09:02:21;;;;;;;1.30;1.03;;;3.60;99.90;;;;;;4993486;28;20432;-68
2023/01/16 09:04:47;;;;;;;1.80;1.27;;;3.60;99.90;;;;;;5011378;28;21383;-69
2023/01/16 09:07:13;;;;;;;2.40;1.53;;;3.70;99.90;;;;;;5009797;28;20489;-71
2023/01/16 09:09:40;;;;;;;2.80;1.27;;;3.70;99.90;;;;;;5008825;28;20970;-71
2023/01/16 09:14:54;;;;;;;1.00;0.70;;;3.80;99.90;;;;;;5005705;28;20491;-71
2023/01/16 09:17:20;;;;;;;5.13;1.73;;;3.80;99.90;;;;;;5005274;28;20470;-72
2023/01/16 09:19:45;;;;;;;1.53;1.43;;;3.80;99.90;;;;;;5004571;28;21160;-72
2023/01/16 09:22:11;;;;;;;1.80;1.10;;;3.80;99.90;;;;;;5006301;28;20194;-71
2023/01/16 09:24:37;;;;;;;2.77;2.10;;;3.80;99.90;;;;;;5008689;28;20193;-72
2023/01/16 09:27:03;;;;;;;2.77;1.53;;;3.80;99.90;;;;;;5008685;28;20562;-71
2023/01/16 09:29:28;;;;;;;3.10;1.43;;;3.80;99.90;;;;;;5006599;28;20445;-71
2023/01/16 09:31:54;;;;;;;2.10;1.20;;;3.80;99.90;;;;;;5010675;28;20265;-75
2023/01/16 09:34:19;;;;;;;2.80;1.00;;;3.80;99.90;;;;;;5012886;28;20209;-71
2023/01/16 09:36:45;;;;;;;1.10;0.97;;;3.90;99.90;;;;;;5012542;28;20242;-71
2023/01/16 09:39:10;;;;;;;8.03;1.30;;;3.90;99.90;;;;;;5008097;28;20201;-71
2023/01/16 09:44:50;;;;;;;3.53;1.37;;;3.90;99.90;;;;;;4974579;28;20377;-71
2023/01/16 09:47:17;;;;;;;1.83;1.00;;;4.00;99.90;;;;;;5007423;28;20480;-72
2023/01/16 09:49:55;;;;;;;2.00;1.27;;;4.10;99.90;;;;;;5005540;28;20461;-72
2023/01/16 10:00:58;;;;;;;2.20;1.50;;;4.20;99.90;;;;;;5019459;28;20515;-70
2023/01/16 10:03:24;;;;;;;1.07;0.97;;;4.20;99.90;;;;;;4993336;28;20443;-70
2023/01/16 10:06:07;;;;;;;1.93;1.70;;;4.20;99.90;;;;;;5002028;28;20463;-71
2023/01/16 10:09:00;;;;;;;1.03;0.70;;;4.20;99.90;;;;;;5009550;28;20175;-70
2023/01/16 10:11:33;;;;;;;1.57;0.90;;;4.20;99.90;;;;;;5014580;28;20519;-69
2023/01/16 10:14:19;;;;;;;0.90;0.90;;;4.20;99.90;;;;;;5011351;28;20799;-71
2023/01/16 10:17:05;;;;;;;4.63;1.47;;;4.20;99.90;;;;;;5011615;28;20519;-71
2023/01/16 10:19:52;;;;;;;0.80;0.80;;;4.30;99.90;;;;;;5009519;28;20449;-70
2023/01/16 10:22:24;;;;;;;1.23;1.10;;;4.30;99.90;;;;;;5015641;28;20521;-70
2023/01/16 10:24:58;;;;;;;0.87;0.87;;;4.30;99.90;;;;;;5012490;28;20444;-71
2023/01/16 10:27:50;;;;;;;1.47;0.80;;;4.40;99.90;;;;;;5009811;28;20563;-70
2023/01/16 10:30:21;;;;;;;0.93;0.83;;;4.40;99.90;;;;;;5009548;28;20468;-70
2023/01/16 10:33:01;;;;;;;5.87;1.10;;;4.50;99.90;;;;;;5011265;28;20445;-70
2023/01/16 10:35:32;;;;;;;1.03;0.80;;;4.50;99.90;;;;;;5010721;28;20448;-70
2023/01/16 10:38:14;;;;;;;1.20;0.70;;;4.60;99.90;;;;;;5012408;28;20484;-70
2023/01/16 10:40:42;;;;;;;2.63;0.77;;;4.70;99.90;;;;;;5011379;28;20438;-71
2023/01/16 10:51:48;;;;;;;1.40;0.57;;;5.00;99.90;;;;;;5004529;28;20461;-68
2023/01/16 10:54:14;;;;;;;0.60;0.53;;;5.10;99.90;;;;;;5012192;28;20433;-69
2023/01/16 10:56:41;;;;;;;0.97;0.60;;;5.20;99.90;;;;;;5001854;28;20245;-69
2023/01/16 10:59:10;;;;;;;2.00;0.70;;;5.20;99.90;;;;;;5010237;28;20484;-72
2023/01/16 11:01:37;;;;;;;1.20;0.80;;;5.20;99.90;;;;;;5008048;28;20545;-69
2023/01/16 11:04:04;;;;;;;0.87;0.60;;;5.30;99.90;;;;;;5017798;28;20433;-69
2023/01/16 11:06:30;;;;;;;1.43;0.77;;;5.30;99.90;;;;;;5010424;28;20832;-69
2023/01/16 11:09:16;;;;;;;1.20;1.00;;;5.30;99.90;;;;;;5002870;28;20446;-69
2023/01/16 11:20:24;;;;;;;0.80;0.60;;;5.40;99.90;;;;;;5015265;28;20853;-72
2023/01/16 11:22:57;;;;;;;3.33;0.70;;;5.40;99.90;;;;;;5010306;28;20467;-71
2023/01/16 11:25:25;;;;;;;2.90;0.73;;;5.50;99.90;;;;;;5010292;28;20781;-68
2023/01/16 11:27:51;;;;;;;1.30;0.50;;;5.60;99.90;;;;;;5013243;28;20462;-70
2023/01/16 11:30:26;;;;;;;0.60;0.60;;;5.60;99.90;;;;;;5010404;28;20500;-67
2023/01/16 11:32:54;;;;;;;0.70;0.70;;;5.50;99.90;;;;;;5014295;28;20441;-70
2023/01/16 11:35:25;;;;;;;1.53;1.07;;;5.50;99.90;;;;;;5011208;28;20437;-68
2023/01/16 11:37:52;;;;;;;0.83;0.63;;;5.50;99.90;;;;;;5018207;28;20805;-67
2023/01/16 11:40:22;;;;;;;0.60;0.40;;;5.50;99.90;;;;;;5012064;28;20469;-69
2023/01/16 11:46:02;;;;;;;0.60;0.60;;;5.50;99.90;;;;;;4967374;28;20507;-70
2023/01/16 11:48:40;;;;;;;1.23;0.50;;;5.50;99.90;;;;;;5011945;28;20473;-69
2023/01/16 11:51:11;;;;;;;2.33;1.03;;;5.60;99.90;;;;;;5017492;28;20557;-67
2023/01/16 11:53:37;;;;;;;2.20;0.80;;;5.60;99.90;;;;;;5011094;28;20469;-69
2023/01/16 11:56:21;;;;;;;0.60;0.50;;;5.60;99.90;;;;;;5010109;28;20508;-68
2023/01/16 11:59:08;;;;;;;1.57;0.67;;;5.70;99.90;;;;;;5018037;28;20723;-66
2023/01/16 12:04:29;;;;;;;0.87;0.60;;;5.70;99.90;;;;;;5011055;28;20487;-71
2023/01/16 12:07:16;;;;;;;0.60;0.60;;;5.70;99.90;;;;;;5003101;28;20470;-66
2023/01/16 12:09:57;;;;;;;1.47;0.70;;;5.80;99.90;;;;;;5009022;28;20984;-70
2023/01/16 12:15:30;;;;;;;0.60;0.60;;;6.10;99.90;;;;;;5005570;28;20424;-71
2023/01/16 12:18:31;;;;;;;1.53;1.07;;;6.20;99.90;;;;;;4993111;28;20974;-70
2023/01/16 12:21:01;;;;;;;0.63;0.50;;;6.10;99.90;;;;;;5008114;28;20453;-71
2023/01/16 12:23:53;;;;;;;1.80;0.60;;;5.90;99.90;;;;;;4991692;28;20433;-72
2023/01/16 12:26:23;;;;;;;1.73;0.73;;;6.00;99.90;;;;;;5028840;28;20456;-71
2023/01/16 12:29:28;;;;;;;1.10;0.63;;;6.00;99.90;;;;;;5009466;28;20468;-72
2023/01/16 12:32:17;;;;;;;1.60;1.00;;;5.60;99.90;;;;;;5022581;28;20820;-72
2023/01/16 12:34:52;;;;;;;0.90;0.70;;;6.10;99.90;;;;;;5005677;28;20474;-70
2023/01/16 12:37:45;;;;;;;1.23;0.70;;;6.10;99.90;;;;;;5016874;28;20456;-72
2023/01/16 12:40:47;;;;;;;0.80;0.60;;;6.20;99.90;;;;;;5007910;28;20998;-74
2023/01/16 12:43:31;;;;;;;1.10;1.00;;;6.20;99.90;;;;;;5033214;28;20444;-72
2023/01/16 12:46:00;;;;;;;2.00;1.30;;;6.30;99.90;;;;;;5005281;28;20450;-72
2023/01/16 12:48:46;;;;;;;0.70;0.70;;;6.40;99.90;;;;;;5016370;28;20792;-72
2023/01/16 12:51:30;;;;;;;1.17;1.00;;;6.50;99.90;;;;;;5008108;28;20838;-74
2023/01/16 12:54:28;;;;;;;10.53;4.07;;;6.80;99.90;;;;;;5020197;28;20456;-71
2023/01/16 12:57:13;;;;;;;0.93;0.63;;;6.70;99.90;;;;;;5024723;28;20472;-72
2023/01/16 12:59:47;;;;;;;0.60;0.60;;;6.60;99.90;;;;;;5013332;28;20469;-72
2023/01/16 13:02:13;;;;;;;0.50;0.43;;;6.50;99.90;;;;;;5011525;28;20515;-72
2023/01/16 13:04:58;;;;;;;0.63;0.50;;;6.60;99.90;;;;;;5015315;28;20460;-71
2023/01/16 13:07:29;;;;;;;0.50;0.50;;;6.60;99.90;;;;;;5009527;28;20202;-72
2023/01/16 13:13:26;;;;;;;1.50;0.50;;;6.80;99.90;;;;;;4992042;28;20993;-71
2023/01/16 13:16:13;;;;;;;0.50;0.50;;;6.90;99.90;;;;;;5003074;28;20494;-71
2023/01/16 13:19:00;;;;;;;1.13;0.70;;;6.90;99.90;;;;;;5015968;28;20432;-72
2023/01/16 13:21:28;;;;;;;1.97;1.77;;;7.10;99.90;;;;;;5008581;28;20538;-71
2023/01/16 13:24:09;;;;;;;1.10;0.50;;;7.30;99.90;;;;;;5030783;28;20498;-72
2023/01/16 13:26:36;;;;;;;1.70;0.97;;;7.80;99.90;;;;;;5004428;28;20465;-72
2023/01/16 13:29:11;;;;;;;1.10;0.70;;;8.40;99.90;;;;;;5020422;28;20549;-71
2023/01/16 13:31:46;;;;;;;0.70;0.60;;;8.90;99.90;;;;;;5015465;28;20457;-71
2023/01/16 13:34:34;;;;;;;0.70;0.53;;;8.80;99.90;;;;;;4996908;28;21206;-70
2023/01/16 13:37:38;;;;;;;0.60;0.60;;;9.40;99.90;;;;;;5021365;28;20481;-71
2023/01/16 13:40:42;;;;;;;0.80;0.57;;;10.50;99.90;;;;;;5024495;28;20460;-70
2023/01/16 13:45:59;;;;;;;0.50;0.50;;;10.20;99.90;;;;;;5013573;28;20516;-71
2023/01/16 13:48:31;;;;;;;0.80;0.50;;;9.40;99.90;;;;;;5004579;28;20433;-73
2023/01/16 13:51:11;;;;;;;0.70;0.70;;;8.70;99.90;;;;;;5022552;28;20549;-73
2023/01/16 13:53:40;;;;;;;1.57;0.60;;;8.40;99.90;;;;;;5010100;28;20433;-72
2023/01/16 13:56:18;;;;;;;0.60;0.50;;;8.20;99.90;;;;;;5007285;28;20449;-71
2023/01/16 13:58:47;;;;;;;0.57;0.50;;;7.80;99.90;;;;;;5005621;28;20517;-70
2023/01/16 14:01:30;;;;;;;0.57;0.53;;;7.80;99.90;;;;;;5014383;28;20446;-71
2023/01/16 14:04:14;;;;;;;2.00;0.80;;;7.60;99.90;;;;;;5024323;28;20509;-72
2023/01/16 14:06:44;;;;;;;0.60;0.60;;;8.60;99.90;;;;;;5016670;28;20469;-70
2023/01/16 14:09:21;;;;;;;1.53;0.50;;;7.30;99.90;;;;;;5023280;28;20489;-72
2023/01/16 14:12:14;;;;;;;1.27;0.60;;;8.20;99.90;;;;;;5008785;28;20489;-72
2023/01/16 14:18:35;;;;;;;0.60;0.60;;;7.20;99.90;;;;;;5021190;28;20467;-70
2023/01/16 14:21:09;;;;;;;0.70;0.50;;;7.20;99.90;;;;;;4946185;29;21020;-71
2023/01/16 14:26:53;;;;;;;1.13;0.77;;;6.90;99.90;;;;;;4999685;28;20480;-71
2023/01/16 14:29:56;;;;;;;0.60;0.47;;;6.60;99.90;;;;;;5016720;28;20449;-73
2023/01/16 14:32:50;;;;;;;2.53;0.60;;;7.20;99.90;;;;;;5026045;28;20448;-73
2023/01/16 14:35:25;;;;;;;0.90;0.70;;;6.40;99.90;;;;;;5023091;28;20442;-72
2023/01/16 14:37:59;;;;;;;0.60;0.60;;;6.40;99.90;;;;;;5001449;28;20521;-69